Terminal Aerodrome Forecast
Issued by NWS Charleston, WV

Home | Current Version | Previous Version | Text Only | Print | Product List | Glossary On
Versions: 1 2 3 4 5 6 7 8 9 10 11 12 13 14 15 16 17 18 19 20 21 22 23 24
000
FTUS41 KRLX 051137
TAFHTS
TAF
KHTS 051137Z 0512/0612 00000KT 6SM BR SCT200
     FM051300 00000KT P6SM SCT200
     FM051900 12004KT P6SM SCT040
     FM060600 00000KT 6SM BR SCT080
     FM060800 00000KT 4SM BR SCT080
     FM061100 00000KT 2SM BR SCT080=

USA.gov is the U.S. government's official web portal to all federal, state and local government web resources and services.